Latest Weather Observations for Cape Wessel

IDD60801

Issued at 11:31 pm CST Sunday 24 September 2017 (issued every 30 minutes, with the page automatically refreshed every 10 minutes)

About weather observations | Map of weather stations | Latest weather observations for NT | Other Formats
Station Details ID: 200786 Name: CAPE WESSEL Lat: -11.00 Lon: 136.76 Height: 18.0 m
Data from the previous 72 hours. | See also: Recent months at Cape Wessel
Date/Time
CST
Temp
°C
App
Temp
°C
Dew
Point
°C
Rel
Hum
%
Delta-T
°C
Wind Press
QNH
hPa
Press
MSL
hPa
Rain since
9am
mm
Dir  Spd
km/h
Gust
km/h
Spd
kts
Gust
kts
24/11:30pm 25.2 27.1 22.1 83 2.1 E 15 20 8 11 1011.6 1011.5 0.0
24/11:00pm 25.2 26.3 21.9 82 2.2 E 19 22 10 12 1011.7 1011.6 0.0
24/10:30pm 25.3 26.8 22.0 82 2.2 E 17 20 9 11 1011.8 1011.7 0.0
24/10:00pm 25.3 26.8 22.0 82 2.2 E 17 20 9 11 1011.7 1011.6 0.0
24/09:30pm 25.2 26.6 21.9 82 2.2 E 17 20 9 11 1011.5 1011.4 0.0
24/09:00pm 25.1 26.6 22.0 83 2.1 E 17 22 9 12 1011.4 1011.3 0.0
24/08:30pm 25.1 26.1 21.8 82 2.2 ESE 19 24 10 13 1010.8 1010.7 0.0
24/08:00pm 25.4 26.4 22.1 82 2.2 ESE 20 24 11 13 1010.5 1010.4 0.0
24/07:30pm 25.6 26.7 22.3 82 2.2 ESE 20 24 11 13 1010.5 1010.4 0.0
24/07:00pm 26.0 27.5 22.7 82 2.2 E 19 24 10 13 1010.2 1010.1 0.0
24/06:30pm 26.0 27.1 22.3 80 2.5 ESE 20 24 11 13 1010.0 1009.9 0.0
24/06:00pm 26.6 27.6 22.2 77 3.0 ESE 20 26 11 14 1009.8 1009.7 0.0
24/05:30pm 27.9 29.2 22.4 72 3.7 ESE 19 24 10 13 1009.7 1009.6 0.0
24/05:00pm 29.1 30.2 22.3 66 4.6 ESE 20 28 11 15 1009.4 1009.3 0.0
24/04:30pm 29.5 30.3 22.5 66 4.8 E 22 28 12 15 1009.3 1009.2 0.0
24/04:00pm 30.0 30.5 22.7 65 5.0 ESE 24 30 13 16 1009.4 1009.3 0.0
24/03:30pm 30.3 30.6 22.2 62 5.5 E 24 30 13 16 1009.6 1009.5 0.0
24/03:00pm 30.5 30.7 22.1 61 5.7 E 24 30 13 16 1009.8 1009.7 0.0
24/02:30pm 30.1 29.9 22.0 62 5.5 E 26 33 14 18 1010.0 1009.9 0.0
24/02:00pm 30.7 30.3 22.3 61 5.7 E 28 35 15 19 1010.2 1010.1 0.0
24/01:30pm 31.6 31.5 22.9 60 6.0 E 28 35 15 19 1010.5 1010.4 0.0
24/01:00pm 31.8 31.4 23.1 60 6.0 E 30 35 16 19 1011.0 1010.9 0.0
24/12:30pm 31.7 31.5 22.7 59 6.2 E 28 33 15 18 1011.5 1011.4 0.0
24/12:00pm 31.6 31.3 22.6 59 6.2 E 28 35 15 19 1011.8 1011.7 0.0
24/11:30am 31.5 30.8 22.5 59 6.2 E 30 35 16 19 1012.2 1012.1 0.0
24/11:00am 32.1 32.5 23.1 59 6.2 ENE 26 35 14 19 1012.6 1012.5 0.0
24/10:30am 31.8 32.6 23.1 60 6.0 ENE 24 32 13 17 1013.0 1012.9 0.0
24/10:00am 30.7 31.6 22.6 62 5.5 ENE 22 30 12 16 1013.1 1013.0 0.0
24/09:30am 30.3 31.0 23.0 65 5.0 E 24 30 13 16 1013.2 1013.1 0.0
24/09:00am 30.2 32.1 23.4 67 4.7 E 19 26 10 14 1013.1 1013.0 0.0
24/08:30am 29.0 30.1 23.0 70 4.1 E 22 28 12 15 1013.0 1012.9 0.0
24/08:00am 28.7 30.6 23.4 73 3.6 E 19 24 10 13 1012.8 1012.7 0.0
24/07:30am 26.9 28.3 22.9 79 2.7 ESE 20 24 11 13 1012.8 1012.7 0.0
24/07:00am 25.9 27.5 22.8 83 2.1 E 19 24 10 13 1012.5 1012.4 0.0
24/06:30am 25.3 27.1 22.6 85 1.8 E 17 22 9 12 1012.1 1012.0 0.0
24/06:00am 25.1 26.4 22.4 85 1.8 E 19 24 10 13 1012.0 1011.9 0.0
24/05:30am 25.4 27.5 23.1 87 1.6 E 17 22 9 12 1011.8 1011.7 0.0
24/05:00am 24.9 26.7 22.6 87 1.5 E 17 20 9 11 1011.6 1011.5 0.0
24/04:30am 24.9 26.7 22.6 87 1.5 ESE 17 20 9 11 1011.3 1011.2 0.0
24/04:00am 24.7 26.3 22.2 86 1.7 ESE 17 20 9 11 1011.1 1011.0 0.0
24/03:30am 24.8 26.5 22.3 86 1.7 ESE 17 20 9 11 1011.0 1010.9 0.0
24/03:00am 24.8 26.5 22.3 86 1.7 ESE 17 19 9 10 1011.3 1011.2 0.0
24/02:30am 24.7 26.3 22.2 86 1.7 ESE 17 19 9 10 1011.5 1011.4 0.0
24/02:00am 24.7 26.7 22.2 86 1.7 SE 15 17 8 9 1011.6 1011.5 0.0
24/01:30am 24.7 27.0 22.0 85 1.8 SE 13 15 7 8 1012.0 1011.9 0.0
24/01:00am 24.9 26.9 22.2 85 1.8 SE 15 17 8 9 1012.1 1012.0 0.0
24/12:30am 24.9 26.8 22.0 84 1.9 ESE 15 17 8 9 1012.4 1012.3 0.0
24/12:00am 24.9 27.1 21.8 83 2.1 ESE 13 17 7 9 1012.6 1012.5 0.0
 
Date/Time
CST
Temp
°C
App
Temp
°C
Dew
Point
°C
Rel
Hum
%
Delta-T
°C
Wind Press
QNH
hPa
Press
MSL
hPa
Rain since
9am
mm
Dir  Spd
km/h
Gust
km/h
Spd
kts
Gust
kts
23/11:30pm 25.0 27.2 21.9 83 2.1 ESE 13 15 7 8 1012.9 1012.8 0.0
23/11:00pm 25.3 26.8 22.0 82 2.2 ESE 17 20 9 11 1013.2 1013.1 0.0
23/10:30pm 25.5 26.9 21.8 80 2.5 ESE 17 20 9 11 1013.1 1013.0 0.0
23/10:00pm 26.0 27.2 22.1 79 2.6 ESE 19 24 10 13 1013.0 1012.9 0.0
23/09:30pm 25.7 26.5 21.8 79 2.6 ESE 20 24 11 13 1012.6 1012.5 0.0
23/09:00pm 25.7 26.5 21.8 79 2.6 ESE 20 26 11 14 1012.3 1012.2 0.0
23/08:30pm 25.7 26.0 21.6 78 2.7 ESE 22 26 12 14 1012.0 1011.9 0.0
23/08:00pm 25.7 26.4 21.6 78 2.7 ESE 20 26 11 14 1011.6 1011.5 0.0
23/07:30pm 25.8 26.2 21.7 78 2.7 ESE 22 26 12 14 1011.3 1011.2 0.0
23/07:00pm 25.9 25.7 21.3 76 3.0 ESE 24 28 13 15 1010.9 1010.8 0.0
23/06:30pm 26.0 25.8 21.2 75 3.2 ESE 24 30 13 16 1010.6 1010.5 0.0
23/06:00pm 26.6 26.3 21.1 72 3.6 E 24 30 13 16 1010.5 1010.4 0.0
23/05:30pm 27.8 27.9 21.1 67 4.5 E 22 26 12 14 1010.5 1010.4 0.0
23/05:00pm 28.7 28.5 21.2 64 5.0 ESE 24 32 13 17 1010.5 1010.4 0.0
23/04:30pm 29.8 29.3 21.5 61 5.6 E 26 32 14 17 1010.6 1010.5 0.0
23/04:00pm 30.3 29.9 21.7 60 5.8 E 26 33 14 18 1010.6 1010.5 0.0
23/03:30pm 30.8 30.2 21.9 59 6.0 E 28 35 15 19 1010.8 1010.7 0.0
23/03:00pm 31.5 31.7 22.8 60 6.0 E 26 33 14 18 1011.1 1011.0 0.0
23/02:30pm 32.3 32.5 22.1 55 6.9 E 24 33 13 18 1011.4 1011.3 0.0
23/02:00pm 32.3 31.9 22.4 56 6.8 E 28 35 15 19 1011.4 1011.3 0.0
23/01:30pm 33.0 33.7 23.0 55 6.9 E 24 33 13 18 1011.7 1011.6 0.0
23/01:00pm 32.2 31.9 22.6 57 6.6 E 28 35 15 19 1012.0 1011.9 0.0
23/12:30pm 32.7 33.1 23.1 57 6.6 E 26 33 14 18 1012.4 1012.3 0.0
23/12:00pm 30.6 30.9 22.2 61 5.7 E 24 30 13 16 1012.7 1012.6 0.0
23/11:30am 32.2 32.8 23.4 59 6.1 ESE 26 35 14 19 1013.0 1012.9 0.0
23/11:00am 31.4 32.1 23.0 61 5.8 ESE 24 30 13 16 1013.5 1013.4 0.0
23/10:30am 32.1 33.0 23.3 59 6.1 ESE 24 30 13 16 1013.8 1013.7 0.0
23/10:00am 31.5 32.8 23.3 61 5.7 ESE 22 28 12 15 1014.1 1014.0 0.0
23/09:30am 30.8 31.2 23.2 64 5.2 E 26 33 14 18 1014.2 1014.1 0.0
23/09:00am 30.0 30.8 23.2 67 4.7 ESE 24 30 13 16 1014.2 1014.1 0.2
23/08:30am 29.4 30.7 23.4 70 4.1 ESE 22 28 12 15 1014.0 1013.9 0.2
23/08:00am 28.4 30.0 23.3 74 3.5 ESE 20 28 11 15 1013.7 1013.6 0.2
23/07:30am 27.5 29.0 23.1 77 3.0 ESE 20 26 11 14 1013.4 1013.3 0.2
23/07:00am 26.3 28.0 23.0 82 2.2 ESE 19 24 10 13 1013.2 1013.1 0.2
23/06:30am 25.3 26.6 22.6 85 1.8 ESE 20 24 11 13 1012.9 1012.8 0.2
23/06:00am 25.1 26.2 22.4 85 1.8 ESE 20 24 11 13 1012.4 1012.3 0.2
23/05:30am 25.1 26.5 22.6 86 1.7 ESE 19 22 10 12 1012.1 1012.0 0.2
23/05:00am 25.0 26.6 22.1 84 1.9 ESE 17 20 9 11 1011.9 1011.8 0.2
23/04:30am 25.3 26.9 22.8 86 1.7 ESE 19 26 10 14 1011.9 1011.8 0.2
23/04:00am 25.1 26.8 22.4 85 1.8 ESE 17 20 9 11 1011.6 1011.5 0.2
23/03:30am 25.0 26.7 22.3 85 1.8 ESE 17 20 9 11 1011.6 1011.5 0.2
23/03:00am 25.0 26.7 22.3 85 1.8 ESE 17 22 9 12 1011.5 1011.4 0.2
23/02:30am 25.0 26.7 22.3 85 1.8 ESE 17 20 9 11 1011.7 1011.6 0.2
23/02:00am 25.1 26.8 22.4 85 1.8 ESE 17 20 9 11 1011.9 1011.8 0.2
23/01:30am 25.2 27.0 22.5 85 1.8 ESE 17 20 9 11 1012.0 1011.9 0.2
23/01:00am 25.2 26.9 22.3 84 1.9 ESE 17 20 9 11 1012.2 1012.1 0.2
23/12:30am 25.2 26.9 22.3 84 1.9 ESE 17 19 9 10 1012.5 1012.4 0.2
23/12:00am 25.4 27.1 22.3 83 2.1 ESE 17 20 9 11 1012.7 1012.6 0.2
 
Date/Time
CST
Temp
°C
App
Temp
°C
Dew
Point
°C
Rel
Hum
%
Delta-T
°C
Wind Press
QNH
hPa
Press
MSL
hPa
Rain since
9am
mm
Dir  Spd
km/h
Gust
km/h
Spd
kts
Gust
kts
22/11:30pm 25.4 26.6 22.1 82 2.2 ESE 19 24 10 13 1012.9 1012.8 0.2
22/11:00pm 25.5 26.3 21.8 80 2.5 ESE 20 26 11 14 1013.0 1012.9 0.2
22/10:30pm 25.7 26.2 22.0 80 2.5 ESE 22 26 12 14 1013.0 1012.9 0.2
22/10:00pm 25.7 25.8 21.8 79 2.6 ESE 24 30 13 16 1013.0 1012.9 0.2
22/09:30pm 25.7 25.7 21.6 78 2.7 ESE 24 30 13 16 1013.1 1013.0 0.2
22/09:00pm 25.8 25.8 21.7 78 2.7 E 24 30 13 16 1013.1 1013.0 0.2
22/08:30pm 25.8 25.3 21.5 77 2.9 ESE 26 30 14 16 1012.8 1012.7 0.2
22/08:00pm 25.9 25.3 21.3 76 3.0 E 26 32 14 17 1012.5 1012.4 0.2
22/07:30pm 25.9 25.5 21.6 77 2.9 ESE 26 32 14 17 1012.3 1012.2 0.2
22/07:00pm 26.1 26.6 22.0 78 2.7 ESE 22 28 12 15 1012.1 1012.0 0.2
22/06:30pm 26.2 26.1 21.4 75 3.2 ESE 24 28 13 15 1011.9 1011.8 0.2
22/06:00pm 26.7 25.9 20.8 70 3.9 ESE 26 32 14 17 1011.7 1011.6 0.2
22/05:30pm 27.7 27.0 21.0 67 4.4 ESE 26 32 14 17 1011.4 1011.3 0.2
22/05:00pm 28.6 28.1 21.4 65 4.8 ESE 26 32 14 17 1011.3 1011.2 0.2
22/04:30pm 29.7 28.8 21.4 61 5.6 ESE 28 35 15 19 1011.2 1011.1 0.2
22/04:00pm 30.1 29.0 21.7 60 5.7 ESE 30 35 16 19 1011.4 1011.3 0.2
22/03:30pm 31.0 30.4 22.0 58 6.1 ESE 28 35 15 19 1011.3 1011.2 0.2
22/03:00pm 30.4 29.7 21.8 60 5.8 E 28 33 15 18 1011.5 1011.4 0.2
22/02:30pm 31.5 31.4 22.2 57 6.3 E 26 33 14 18 1011.7 1011.6 0.2
22/02:00pm 31.9 31.8 22.3 56 6.5 ESE 26 33 14 18 1011.9 1011.8 0.2
22/01:30pm 31.9 31.6 22.6 58 6.4 E 28 33 15 18 1012.2 1012.1 0.2
22/01:00pm 30.7 31.6 22.6 62 5.5 E 22 28 12 15 1012.5 1012.4 0.2
22/12:30pm 31.2 31.8 22.8 61 5.8 ESE 24 30 13 16 1012.9 1012.8 0.2
22/12:00pm 31.6 32.1 22.6 59 6.2 E 24 32 13 17 1013.2 1013.1 0.2
22/11:30am 30.9 30.9 21.7 58 6.2 E 24 32 13 17 1013.5 1013.4 0.2
22/11:00am 32.4 33.7 23.4 59 6.2 E 22 30 12 16 1013.6 1013.5 0.2
22/10:30am 31.5 32.8 23.3 61 5.7 E 22 26 12 14 1013.6 1013.5 0.0
22/10:00am 30.0 31.9 23.7 69 4.4 ESE 20 26 11 14 1013.9 1013.8 0.0
22/09:30am 28.6 29.1 22.6 70 4.1 ESE 24 30 13 16 1014.0 1013.9 0.0
22/09:00am 27.9 29.5 23.3 76 3.1 ESE 20 24 11 13 1014.0 1013.9 0.0
22/08:30am 27.2 29.1 23.4 80 2.6 ESE 19 24 10 13 1013.8 1013.7 0.0
22/08:00am 26.1 28.1 23.6 86 1.7 E 19 24 10 13 1013.7 1013.6 0.0
22/07:30am 24.4 23.8 21.9 86 1.7 E 28 39 15 21 1013.6 1013.5 0.0
22/07:24am 25.0 24.5 22.1 84 1.9 ESE 28 39 15 21 1013.5 1013.4 0.0
22/07:00am 26.2 27.7 22.7 81 2.4 ESE 19 20 10 11 1013.2 1013.1 0.0
22/06:30am 25.6 27.0 22.5 83 2.1 ESE 19 24 10 13 1012.6 1012.5 0.0
22/06:00am 25.2 26.4 22.1 83 2.1 ESE 19 22 10 12 1012.2 1012.1 0.0
22/05:30am 25.2 26.4 22.1 83 2.1 E 19 24 10 13 1012.0 1011.9 0.0
22/05:00am 25.0 26.4 21.9 83 2.1 ESE 17 20 9 11 1011.7 1011.6 0.0
22/04:30am 25.2 26.3 21.9 82 2.2 ESE 19 20 10 11 1011.5 1011.4 0.0
22/04:00am 25.3 26.1 21.8 81 2.3 ESE 20 24 11 13 1011.4 1011.3 0.0
22/03:30am 25.5 25.9 21.8 80 2.5 ESE 22 26 12 14 1011.3 1011.2 0.0
22/03:00am 25.7 26.2 22.0 80 2.5 ESE 22 26 12 14 1011.5 1011.4 0.0
22/02:30am 25.5 26.5 22.2 82 2.2 ESE 20 30 11 16 1011.6 1011.5 0.0
22/02:00am 25.4 25.6 22.1 82 2.2 ESE 24 28 13 15 1011.7 1011.6 0.0
22/01:30am 25.3 26.1 21.8 81 2.3 E 20 26 11 14 1011.9 1011.8 0.0
22/01:00am 25.4 25.9 21.9 81 2.3 E 22 28 12 15 1012.0 1011.9 0.0
22/12:30am 25.4 26.6 22.1 82 2.2 E 19 24 10 13 1012.1 1012.0 0.0
22/12:00am 25.2 26.2 21.7 81 2.3 ESE 19 22 10 12 1012.1 1012.0 0.0

Other Formats:

Comma delimited format used in spreadsheet applications
http://www.bom.gov.au/fwo/IDD60801/IDD60801.94147.axf

JavaScript Object Notation format (JSON) in row-major order
http://www.bom.gov.au/fwo/IDD60801/IDD60801.94147.json